Time;durP1;ratioP1;P1;durP2;ratioP2;P2;SDS_P1;SDS_P2;PMS_P1;PMS_P2;Temp;Humidity;BMP_temperature;BMP_pressure;BME280_temperature;BME280_humidity;BME280_pressure;Samples;Min_cycle;Max_cycle;Signal;HPM_P1;HPM_P2
2023/03/20 00:01:14;;;;;;;10.90;5.13;;;;;;;;;;5069180;28;20542;-58
2023/03/20 00:03:40;;;;;;;9.50;5.40;;;;;;;;;;5067967;28;20124;-58
2023/03/20 00:06:16;;;;;;;8.70;6.25;;;;;;;;;;5065552;28;20115;-59
2023/03/20 00:08:45;;;;;;;9.98;4.93;;;;;;;;;;5064855;28;20040;-58
2023/03/20 00:11:21;;;;;;;9.60;4.72;;;;;;;;;;5065892;28;20052;-58
2023/03/20 00:13:47;;;;;;;11.43;5.15;;;;;;;;;;5063688;28;20049;-59
2023/03/20 00:16:14;;;;;;;9.63;6.07;;;;;;;;;;5070139;28;20047;-59
2023/03/20 00:18:40;;;;;;;11.88;6.68;;;;;;;;;;5069619;28;20052;-59
2023/03/20 00:21:10;;;;;;;10.90;4.95;;;;;;;;;;5068787;28;20067;-59
2023/03/20 00:23:36;;;;;;;9.10;5.43;;;;;;;;;;5068968;28;20505;-58
2023/03/20 00:26:02;;;;;;;16.85;5.60;;;;;;;;;;5070415;28;20507;-58
2023/03/20 00:28:28;;;;;;;13.27;5.93;;;;;;;;;;5068230;28;20098;-59
2023/03/20 00:30:54;;;;;;;18.80;6.43;;;;;;;;;;5072065;28;20036;-58
2023/03/20 00:33:21;;;;;;;11.45;5.45;;;;;;;;;;5045405;28;20578;-58
2023/03/20 00:35:47;;;;;;;11.35;4.82;;;;;;;;;;5068973;28;20924;-59
2023/03/20 00:38:13;;;;;;;12.90;5.72;;;;;;;;;;5044075;28;20044;-58
2023/03/20 00:40:40;;;;;;;9.00;5.95;;;;;;;;;;5045543;28;20526;-59
2023/03/20 00:43:06;;;;;;;11.20;6.75;;;;;;;;;;5067940;28;20552;-59
2023/03/20 00:45:33;;;;;;;12.73;5.25;;;;;;;;;;5046844;28;20040;-58
2023/03/20 00:48:00;;;;;;;9.82;6.25;;;;;;;;;;5066941;28;20560;-59
2023/03/20 00:50:28;;;;;;;11.93;6.07;;;;;;;;;;5071703;28;20045;-58
2023/03/20 00:52:55;;;;;;;14.93;7.03;;;;;;;;;;5069993;28;20037;-59
2023/03/20 00:55:23;;;;;;;10.90;5.38;;;;;;;;;;5068415;28;20052;-58
2023/03/20 00:57:51;;;;;;;9.55;5.10;;;;;;;;;;5067988;28;20091;-59
2023/03/20 01:00:20;;;;;;;10.25;6.57;;;;;;;;;;5050130;28;20036;-59
2023/03/20 01:02:47;;;;;;;11.20;5.63;;;;;;;;;;5069872;28;20626;-58
2023/03/20 01:05:13;;;;;;;11.95;6.60;;;;;;;;;;5068959;28;20040;-58
2023/03/20 01:07:40;;;;;;;16.60;7.68;;;;;;;;;;5069217;28;20533;-58
2023/03/20 01:10:06;;;;;;;10.60;5.97;;;;;;;;;;5070033;28;20055;-59
2023/03/20 01:12:33;;;;;;;13.13;6.72;;;;;;;;;;5070045;28;20131;-58
2023/03/20 01:14:59;;;;;;;12.15;6.28;;;;;;;;;;5072261;28;20048;-59
2023/03/20 01:17:26;;;;;;;13.27;6.78;;;;;;;;;;5033859;28;20044;-58
2023/03/20 01:19:52;;;;;;;9.52;5.85;;;;;;;;;;5071230;28;20045;-59
2023/03/20 01:22:19;;;;;;;12.57;6.93;;;;;;;;;;5067972;28;20123;-58
2023/03/20 01:24:46;;;;;;;19.63;7.05;;;;;;;;;;5065961;28;20045;-59
2023/03/20 01:27:16;;;;;;;14.10;8.25;;;;;;;;;;5067508;28;20040;-59
2023/03/20 01:29:42;;;;;;;9.80;6.43;;;;;;;;;;5069164;28;20048;-58
2023/03/20 01:32:12;;;;;;;11.45;7.03;;;;;;;;;;5064920;28;20071;-58
2023/03/20 01:34:38;;;;;;;11.40;6.70;;;;;;;;;;5071403;28;20339;-58
2023/03/20 01:37:10;;;;;;;16.85;7.68;;;;;;;;;;5071404;28;20454;-59
2023/03/20 01:39:36;;;;;;;12.80;7.00;;;;;;;;;;5073421;28;20470;-58
2023/03/20 01:42:04;;;;;;;14.10;8.00;;;;;;;;;;5074114;28;20052;-58
2023/03/20 01:44:31;;;;;;;11.85;5.88;;;;;;;;;;5073708;28;20143;-58
2023/03/20 01:46:58;;;;;;;13.20;6.70;;;;;;;;;;5074456;28;20044;-58
2023/03/20 01:49:25;;;;;;;12.65;7.43;;;;;;;;;;5072969;28;20118;-58
2023/03/20 01:51:51;;;;;;;12.77;7.38;;;;;;;;;;5071286;28;20066;-58
2023/03/20 01:54:20;;;;;;;14.02;7.40;;;;;;;;;;5070540;28;20116;-59
2023/03/20 01:56:49;;;;;;;17.60;6.53;;;;;;;;;;5072059;28;20047;-59
2023/03/20 01:59:33;;;;;;;12.38;6.45;;;;;;;;;;5070531;28;20059;-58
2023/03/20 02:01:59;;;;;;;11.90;5.90;;;;;;;;;;5073349;28;20044;-58
2023/03/20 02:04:32;;;;;;;13.68;7.13;;;;;;;;;;5073895;28;20612;-58
2023/03/20 02:06:59;;;;;;;13.80;7.20;;;;;;;;;;5067843;28;20078;-59
2023/03/20 02:09:25;;;;;;;13.15;6.28;;;;;;;;;;5064752;28;20492;-58
2023/03/20 02:11:51;;;;;;;12.55;6.70;;;;;;;;;;5063419;28;20052;-58
2023/03/20 02:14:18;;;;;;;14.70;7.68;;;;;;;;;;5065521;28;20147;-59
2023/03/20 02:16:44;;;;;;;17.35;8.23;;;;;;;;;;5044044;28;20574;-59
2023/03/20 02:19:17;;;;;;;12.88;7.10;;;;;;;;;;5070592;28;20114;-59
2023/03/20 02:21:46;;;;;;;14.20;7.13;;;;;;;;;;5072798;28;20063;-59
2023/03/20 02:24:47;;;;;;;14.77;6.53;;;;;;;;;;5068305;28;20032;-58
2023/03/20 02:27:14;;;;;;;16.17;6.78;;;;;;;;;;4981848;28;20058;-58
2023/03/20 02:29:41;;;;;;;15.23;7.80;;;;;;;;;;5051188;28;20652;-58
2023/03/20 02:32:07;;;;;;;16.42;8.30;;;;;;;;;;5048021;28;20941;-58
2023/03/20 02:34:39;;;;;;;14.70;6.85;;;;;;;;;;5070477;28;20041;-58
2023/03/20 02:37:24;;;;;;;10.57;6.90;;;;;;;;;;5067479;28;20068;-58
2023/03/20 02:40:05;;;;;;;12.30;6.53;;;;;;;;;;5070424;28;20079;-58
2023/03/20 02:42:44;;;;;;;8.27;5.10;;;;;;;;;;5071603;28;20047;-58
2023/03/20 02:45:32;;;;;;;10.95;5.30;;;;;;;;;;5069448;28;20726;-58
2023/03/20 02:48:18;;;;;;;17.67;6.68;;;;;;;;;;5069674;28;20148;-58
2023/03/20 02:50:49;;;;;;;10.02;6.97;;;;;;;;;;5067264;28;21625;-58
2023/03/20 02:53:18;;;;;;;10.57;4.85;;;;;;;;;;5054083;28;20106;-58
2023/03/20 02:55:48;;;;;;;12.50;6.25;;;;;;;;;;5069874;28;20064;-59
2023/03/20 02:58:37;;;;;;;10.23;6.00;;;;;;;;;;5044756;28;20041;-58
2023/03/20 03:01:09;;;;;;;8.00;5.50;;;;;;;;;;5023349;28;20048;-59
2023/03/20 03:03:37;;;;;;;13.32;5.13;;;;;;;;;;5070314;28;20064;-58
2023/03/20 03:06:09;;;;;;;9.27;5.55;;;;;;;;;;5069239;28;20040;-59
2023/03/20 03:08:37;;;;;;;13.25;4.85;;;;;;;;;;5068042;28;20505;-59
2023/03/20 03:11:08;;;;;;;8.10;5.05;;;;;;;;;;5070261;28;20056;-58
2023/03/20 03:13:43;;;;;;;13.15;5.43;;;;;;;;;;5069652;28;20564;-59
2023/03/20 03:16:11;;;;;;;10.02;5.03;;;;;;;;;;5070743;28;20708;-59
2023/03/20 03:18:38;;;;;;;7.60;3.75;;;;;;;;;;5072982;28;20041;-58
2023/03/20 03:21:05;;;;;;;11.23;4.32;;;;;;;;;;5067435;28;20486;-59
2023/03/20 03:23:36;;;;;;;15.30;5.18;;;;;;;;;;5070206;28;20036;-58
2023/03/20 03:26:04;;;;;;;10.85;4.25;;;;;;;;;;5071754;28;20048;-58
2023/03/20 03:28:37;;;;;;;6.82;4.32;;;;;;;;;;5072790;28;20048;-59
2023/03/20 03:31:07;;;;;;;11.23;3.72;;;;;;;;;;5071377;28;20041;-59
2023/03/20 03:33:36;;;;;;;12.93;3.67;;;;;;;;;;5071401;28;20132;-59
2023/03/20 03:36:08;;;;;;;8.02;4.10;;;;;;;;;;5069943;28;20051;-59
2023/03/20 03:38:39;;;;;;;9.85;3.53;;;;;;;;;;5070215;28;20056;-59
2023/03/20 03:41:28;;;;;;;8.13;3.78;;;;;;;;;;5072885;28;20037;-59
2023/03/20 03:44:12;;;;;;;10.18;4.70;;;;;;;;;;5073086;28;20083;-58
2023/03/20 03:46:47;;;;;;;6.47;3.50;;;;;;;;;;5071411;28;20051;-59
2023/03/20 03:49:20;;;;;;;6.95;4.18;;;;;;;;;;5072117;28;20093;-58
2023/03/20 03:51:49;;;;;;;8.30;3.92;;;;;;;;;;5069664;28;20037;-59
2023/03/20 03:54:20;;;;;;;15.73;4.03;;;;;;;;;;5067913;28;20531;-59
2023/03/20 03:56:46;;;;;;;7.57;3.80;;;;;;;;;;5067812;28;20032;-59
2023/03/20 03:59:16;;;;;;;9.05;3.58;;;;;;;;;;5069970;28;20519;-59
2023/03/20 04:01:43;;;;;;;5.63;2.78;;;;;;;;;;5069959;28;20161;-59
2023/03/20 04:04:10;;;;;;;8.38;3.80;;;;;;;;;;5070748;28;20105;-59
2023/03/20 04:06:36;;;;;;;8.07;3.30;;;;;;;;;;5069398;28;20094;-59
2023/03/20 04:09:03;;;;;;;7.93;3.70;;;;;;;;;;5063031;28;20079;-58
2023/03/20 04:11:29;;;;;;;11.73;4.03;;;;;;;;;;5045832;28;20052;-59
2023/03/20 04:13:55;;;;;;;6.85;3.00;;;;;;;;;;5065482;28;20032;-58
2023/03/20 04:16:22;;;;;;;7.45;2.90;;;;;;;;;;5064347;28;20045;-59
2023/03/20 04:18:48;;;;;;;7.57;3.40;;;;;;;;;;5065521;28;20044;-58
2023/03/20 04:21:15;;;;;;;6.95;3.30;;;;;;;;;;5070393;28;20040;-59
2023/03/20 04:23:41;;;;;;;13.30;4.15;;;;;;;;;;5067140;28;20044;-59
2023/03/20 04:26:07;;;;;;;12.68;4.78;;;;;;;;;;5068152;28;20049;-59
2023/03/20 04:28:33;;;;;;;10.27;4.47;;;;;;;;;;5066249;28;20059;-59
2023/03/20 04:31:00;;;;;;;5.60;3.15;;;;;;;;;;5071688;28;20036;-59
2023/03/20 04:33:26;;;;;;;7.13;3.53;;;;;;;;;;5066578;28;20064;-59
2023/03/20 04:35:52;;;;;;;6.78;3.33;;;;;;;;;;5066649;28;20041;-59
2023/03/20 04:38:19;;;;;;;7.63;3.55;;;;;;;;;;5068093;28;20522;-59
2023/03/20 04:40:46;;;;;;;6.20;3.03;;;;;;;;;;5068348;28;20613;-58
2023/03/20 04:43:12;;;;;;;5.47;3.38;;;;;;;;;;5068605;28;20075;-59
2023/03/20 04:45:38;;;;;;;9.27;2.92;;;;;;;;;;5069323;28;20857;-58
2023/03/20 04:48:04;;;;;;;5.30;3.60;;;;;;;;;;5070569;28;20588;-59
2023/03/20 04:50:30;;;;;;;7.57;3.58;;;;;;;;;;5067746;28;20048;-58
2023/03/20 04:52:57;;;;;;;13.45;4.68;;;;;;;;;;5070729;28;20651;-58
2023/03/20 04:55:23;;;;;;;7.03;3.40;;;;;;;;;;5071189;28;20041;-59
2023/03/20 04:57:49;;;;;;;6.90;3.22;;;;;;;;;;5045396;28;20048;-59
2023/03/20 05:00:16;;;;;;;5.72;3.13;;;;;;;;;;5069318;28;20477;-59
2023/03/20 05:02:42;;;;;;;4.00;2.90;;;;;;;;;;5069397;28;20702;-59
2023/03/20 05:05:08;;;;;;;5.10;3.17;;;;;;;;;;5066167;28;20032;-58
2023/03/20 05:07:35;;;;;;;5.00;3.13;;;;;;;;;;5066847;28;20150;-59
2023/03/20 05:10:01;;;;;;;9.68;3.30;;;;;;;;;;5066962;28;20049;-59
2023/03/20 05:12:27;;;;;;;9.07;3.72;;;;;;;;;;5069696;28;20049;-59
2023/03/20 05:14:56;;;;;;;14.40;4.85;;;;;;;;;;5071120;28;20041;-58
2023/03/20 05:17:22;;;;;;;6.85;3.45;;;;;;;;;;5067684;28;20036;-59
2023/03/20 05:19:48;;;;;;;6.82;3.72;;;;;;;;;;5066450;28;20048;-59
2023/03/20 05:22:15;;;;;;;9.63;3.80;;;;;;;;;;5068934;28;20071;-59
2023/03/20 05:24:41;;;;;;;6.95;4.00;;;;;;;;;;5069800;28;20043;-59
2023/03/20 05:27:07;;;;;;;6.63;3.53;;;;;;;;;;5069667;28;20605;-59
2023/03/20 05:29:33;;;;;;;9.20;4.32;;;;;;;;;;5071406;28;20148;-59
2023/03/20 05:31:59;;;;;;;11.88;5.00;;;;;;;;;;5064443;28;20416;-59
2023/03/20 05:34:26;;;;;;;12.30;5.97;;;;;;;;;;5063868;28;20060;-59
2023/03/20 05:36:53;;;;;;;8.77;4.72;;;;;;;;;;5040581;28;20537;-59
2023/03/20 05:39:19;;;;;;;9.50;4.28;;;;;;;;;;5070948;28;20064;-59
2023/03/20 05:41:45;;;;;;;11.00;3.67;;;;;;;;;;5068206;28;20040;-58
2023/03/20 05:44:11;;;;;;;9.35;4.43;;;;;;;;;;5067858;28;20048;-59
2023/03/20 05:46:37;;;;;;;11.63;4.85;;;;;;;;;;5065137;28;20047;-59
2023/03/20 05:49:03;;;;;;;8.52;3.47;;;;;;;;;;5044813;28;20044;-59
2023/03/20 05:51:30;;;;;;;6.20;3.75;;;;;;;;;;5049919;28;20037;-59
2023/03/20 05:53:56;;;;;;;5.95;3.85;;;;;;;;;;5061698;28;20079;-59
2023/03/20 05:56:22;;;;;;;15.98;5.80;;;;;;;;;;5066579;28;20044;-58
2023/03/20 05:58:48;;;;;;;8.98;3.47;;;;;;;;;;5070576;28;20044;-59
2023/03/20 06:01:20;;;;;;;7.60;4.03;;;;;;;;;;5050503;28;20032;-59
2023/03/20 06:03:47;;;;;;;7.07;3.60;;;;;;;;;;5067085;28;20045;-58
2023/03/20 06:06:13;;;;;;;9.93;4.28;;;;;;;;;;5050130;28;20056;-59
2023/03/20 06:08:39;;;;;;;9.13;4.30;;;;;;;;;;5064079;28;20163;-59
2023/03/20 06:11:05;;;;;;;12.30;3.80;;;;;;;;;;5066856;28;20468;-59
2023/03/20 06:13:31;;;;;;;6.75;3.30;;;;;;;;;;5061906;28;20312;-58
2023/03/20 06:15:58;;;;;;;8.05;3.13;;;;;;;;;;5066059;28;20482;-59
2023/03/20 06:18:24;;;;;;;4.88;2.78;;;;;;;;;;5060569;28;20044;-59
2023/03/20 06:20:53;;;;;;;9.90;3.72;;;;;;;;;;5069287;28;20041;-58
2023/03/20 06:23:20;;;;;;;6.68;2.95;;;;;;;;;;5070138;28;20051;-58
2023/03/20 06:25:46;;;;;;;6.95;3.50;;;;;;;;;;5072072;28;20470;-59
2023/03/20 06:28:12;;;;;;;7.82;2.85;;;;;;;;;;5073091;28;20524;-58
2023/03/20 06:30:38;;;;;;;10.10;3.65;;;;;;;;;;5070713;28;20049;-58
2023/03/20 06:33:06;;;;;;;7.05;3.13;;;;;;;;;;5069045;28;20403;-59
2023/03/20 06:35:32;;;;;;;7.75;2.95;;;;;;;;;;5048671;28;20063;-58
2023/03/20 06:37:58;;;;;;;6.60;2.92;;;;;;;;;;5071541;28;20033;-59
2023/03/20 06:40:26;;;;;;;7.97;3.38;;;;;;;;;;5068063;28;20581;-58
2023/03/20 06:42:52;;;;;;;9.23;3.22;;;;;;;;;;5069847;28;20124;-59
2023/03/20 06:45:18;;;;;;;6.18;3.53;;;;;;;;;;5065792;28;20048;-59
2023/03/20 06:47:45;;;;;;;6.70;3.53;;;;;;;;;;5069802;28;20044;-59
2023/03/20 06:50:12;;;;;;;5.70;3.15;;;;;;;;;;5070872;28;20589;-59
2023/03/20 06:52:38;;;;;;;6.72;4.25;;;;;;;;;;5069748;28;20043;-58
2023/03/20 06:55:05;;;;;;;7.30;3.33;;;;;;;;;;5071787;28;20102;-59
2023/03/20 06:57:31;;;;;;;8.70;3.47;;;;;;;;;;5062328;28;20044;-58
2023/03/20 06:59:57;;;;;;;11.13;3.22;;;;;;;;;;5067864;28;20852;-58
2023/03/20 07:02:24;;;;;;;9.60;4.97;;;;;;;;;;5067922;28;20412;-59
2023/03/20 07:04:50;;;;;;;5.82;2.55;;;;;;;;;;5066310;28;20052;-59
2023/03/20 07:07:16;;;;;;;8.00;4.05;;;;;;;;;;5072765;28;20447;-59
2023/03/20 07:09:42;;;;;;;10.15;3.20;;;;;;;;;;5069124;28;20067;-59
2023/03/20 07:12:15;;;;;;;11.93;2.92;;;;;;;;;;5054434;28;20127;-59
2023/03/20 07:14:44;;;;;;;10.00;3.22;;;;;;;;;;5067237;28;20037;-59
2023/03/20 07:17:11;;;;;;;10.05;2.53;;;;;;;;;;5063835;28;20071;-59
2023/03/20 07:19:37;;;;;;;8.75;3.75;;;;;;;;;;5061220;28;20136;-58
2023/03/20 07:22:06;;;;;;;8.75;3.17;;;;;;;;;;5068193;28;20044;-59
2023/03/20 07:24:32;;;;;;;5.97;2.95;;;;;;;;;;5067842;28;20048;-59
2023/03/20 07:26:58;;;;;;;4.78;3.50;;;;;;;;;;5063628;28;20036;-59
2023/03/20 07:29:24;;;;;;;6.97;3.20;;;;;;;;;;5069982;28;20460;-59
2023/03/20 07:31:51;;;;;;;8.80;3.28;;;;;;;;;;5069847;28;20042;-58
2023/03/20 07:34:17;;;;;;;5.82;2.83;;;;;;;;;;5069794;28;20041;-59
2023/03/20 07:36:43;;;;;;;14.30;3.75;;;;;;;;;;5072973;28;20442;-59
2023/03/20 07:39:10;;;;;;;12.70;3.47;;;;;;;;;;5074072;28;20048;-59
2023/03/20 07:41:36;;;;;;;9.27;2.60;;;;;;;;;;5057671;28;20064;-59
2023/03/20 07:44:02;;;;;;;3.83;2.90;;;;;;;;;;5075446;28;20048;-58
2023/03/20 07:46:28;;;;;;;8.93;4.10;;;;;;;;;;5073472;28;20196;-59
2023/03/20 07:48:56;;;;;;;11.63;3.35;;;;;;;;;;5073595;28;20036;-58
2023/03/20 07:51:23;;;;;;;10.52;2.97;;;;;;;;;;5074154;28;20149;-58
2023/03/20 07:53:49;;;;;;;7.10;2.75;;;;;;;;;;5075515;28;20044;-58
2023/03/20 07:56:15;;;;;;;6.47;2.92;;;;;;;;;;5072581;28;20044;-58
2023/03/20 07:58:41;;;;;;;5.95;3.25;;;;;;;;;;5075604;28;20419;-58
2023/03/20 08:01:07;;;;;;;5.15;2.42;;;;;;;;;;5073488;28;20043;-59
2023/03/20 08:03:33;;;;;;;6.40;3.65;;;;;;;;;;5055176;28;20045;-58
2023/03/20 08:06:00;;;;;;;3.58;2.00;;;;;;;;;;5075808;28;20530;-58
2023/03/20 08:08:26;;;;;;;5.70;2.13;;;;;;;;;;5074145;28;20110;-58
2023/03/20 08:10:52;;;;;;;4.40;1.83;;;;;;;;;;5073770;28;20048;-58
2023/03/20 08:13:18;;;;;;;8.70;2.80;;;;;;;;;;5073538;28;20534;-58
2023/03/20 08:15:46;;;;;;;4.43;2.42;;;;;;;;;;5073743;28;20048;-58
2023/03/20 08:18:12;;;;;;;5.55;2.10;;;;;;;;;;5073324;28;20045;-58
2023/03/20 08:20:38;;;;;;;8.82;2.00;;;;;;;;;;5072098;28;20036;-58
2023/03/20 08:23:04;;;;;;;5.53;3.03;;;;;;;;;;5072942;28;20075;-59
2023/03/20 08:25:32;;;;;;;7.10;3.53;;;;;;;;;;5073883;28;20048;-59
2023/03/20 08:27:59;;;;;;;4.97;2.00;;;;;;;;;;5073173;28;21471;-59
2023/03/20 08:30:25;;;;;;;5.65;2.13;;;;;;;;;;5073994;28;20068;-59
2023/03/20 08:32:52;;;;;;;6.82;2.30;;;;;;;;;;5048718;28;20537;-59
2023/03/20 08:35:18;;;;;;;6.03;2.72;;;;;;;;;;5074237;28;20063;-59
2023/03/20 08:37:44;;;;;;;5.10;2.30;;;;;;;;;;5048761;28;20533;-58
2023/03/20 08:40:10;;;;;;;4.90;2.42;;;;;;;;;;5074535;28;20048;-59
2023/03/20 08:42:36;;;;;;;10.43;3.53;;;;;;;;;;5072601;28;20048;-59
2023/03/20 08:45:02;;;;;;;5.35;3.00;;;;;;;;;;5072468;28;20045;-59
2023/03/20 08:47:29;;;;;;;5.35;2.10;;;;;;;;;;5047822;28;20612;-58
2023/03/20 08:49:55;;;;;;;3.72;2.22;;;;;;;;;;5073594;28;20040;-59
2023/03/20 08:52:21;;;;;;;8.60;2.72;;;;;;;;;;5074245;28;20040;-59
2023/03/20 08:54:48;;;;;;;6.40;2.10;;;;;;;;;;5074356;28;20049;-59
2023/03/20 08:57:14;;;;;;;7.45;2.55;;;;;;;;;;5074616;28;20044;-59
2023/03/20 08:59:40;;;;;;;9.18;2.60;;;;;;;;;;5073577;28;20800;-59
2023/03/20 09:02:06;;;;;;;5.00;1.92;;;;;;;;;;5057117;28;20600;-59
2023/03/20 09:04:32;;;;;;;4.63;2.72;;;;;;;;;;5073433;28;20045;-59
2023/03/20 09:07:00;;;;;;;4.43;1.90;;;;;;;;;;5074191;28;20042;-59
2023/03/20 09:09:28;;;;;;;6.53;2.42;;;;;;;;;;5073399;28;20091;-59
2023/03/20 09:11:55;;;;;;;6.32;2.42;;;;;;;;;;5055495;28;20071;-59
2023/03/20 09:14:22;;;;;;;4.43;2.78;;;;;;;;;;5073667;28;20906;-58
2023/03/20 09:16:48;;;;;;;4.97;2.47;;;;;;;;;;5073765;28;20050;-59
2023/03/20 09:19:14;;;;;;;8.25;2.47;;;;;;;;;;5065184;28;20045;-59
2023/03/20 09:21:40;;;;;;;7.03;2.90;;;;;;;;;;5070905;28;20040;-59
2023/03/20 09:24:06;;;;;;;7.38;2.47;;;;;;;;;;5073867;28;20056;-59
2023/03/20 09:26:33;;;;;;;3.72;2.30;;;;;;;;;;5073626;28;20041;-59
2023/03/20 09:28:59;;;;;;;7.18;2.63;;;;;;;;;;5072984;28;21026;-59
2023/03/20 09:31:25;;;;;;;8.15;3.30;;;;;;;;;;5072217;28;20041;-59
2023/03/20 09:33:52;;;;;;;4.80;2.42;;;;;;;;;;5072814;28;20068;-59
2023/03/20 09:36:18;;;;;;;7.90;3.67;;;;;;;;;;5075538;28;20174;-59
2023/03/20 09:38:44;;;;;;;7.22;2.50;;;;;;;;;;5047891;28;20048;-59
2023/03/20 09:41:21;;;;;;;5.45;3.35;;;;;;;;;;5074300;28;20108;-58
2023/03/20 09:43:55;;;;;;;8.48;3.40;;;;;;;;;;5055563;28;20812;-59
2023/03/20 09:46:41;;;;;;;10.15;2.35;;;;;;;;;;5055867;28;20531;-59
2023/03/20 09:49:10;;;;;;;6.97;3.88;;;;;;;;;;5055395;28;20052;-59
2023/03/20 09:52:09;;;;;;;6.63;2.67;;;;;;;;;;5070943;28;20102;-59
2023/03/20 09:54:37;;;;;;;6.32;2.90;;;;;;;;;;5025305;28;20052;-59
2023/03/20 09:57:04;;;;;;;8.55;2.20;;;;;;;;;;5077578;28;20064;-59
2023/03/20 09:59:32;;;;;;;6.13;2.80;;;;;;;;;;5076443;28;20068;-59
2023/03/20 10:02:01;;;;;;;6.53;2.35;;;;;;;;;;5075765;28;20526;-59
2023/03/20 10:04:28;;;;;;;8.13;2.45;;;;;;;;;;5074872;28;20584;-60
2023/03/20 10:06:55;;;;;;;11.45;3.03;;;;;;;;;;5076881;28;20032;-59
2023/03/20 10:09:25;;;;;;;8.55;3.20;;;;;;;;;;5060128;28;20430;-59
2023/03/20 10:11:58;;;;;;;4.82;2.10;;;;;;;;;;5076741;28;20057;-59
2023/03/20 10:14:23;;;;;;;;;;;;;;;;;;5077017;28;20047;-59
2023/03/20 10:16:55;;;;;;;6.75;2.25;;;;;;;;;;5077052;28;19927;-59
2023/03/20 10:19:22;;;;;;;;;;;;;;;;;;5074772;28;20062;-59
2023/03/20 10:21:49;;;;;;;7.35;2.40;;;;;;;;;;5075625;28;19993;-59
2023/03/20 10:24:35;;;;;;;7.70;2.65;;;;;;;;;;5077777;28;20047;-59
2023/03/20 10:27:10;;;;;;;7.25;2.50;;;;;;;;;;5059420;28;20040;-59
2023/03/20 10:29:43;;;;;;;9.57;2.90;;;;;;;;;;5072623;28;20072;-59
2023/03/20 10:32:22;;;;;;;12.93;3.67;;;;;;;;;;5056938;28;20051;-59
2023/03/20 10:34:52;;;;;;;7.90;3.40;;;;;;;;;;5057963;28;20080;-59
2023/03/20 10:37:41;;;;;;;9.05;2.80;;;;;;;;;;5076609;28;20043;-59
2023/03/20 10:40:19;;;;;;;8.15;3.25;;;;;;;;;;5057903;28;20493;-59
2023/03/20 10:42:47;;;;;;;12.90;2.97;;;;;;;;;;5076821;28;20044;-59
2023/03/20 10:45:29;;;;;;;9.93;3.25;;;;;;;;;;5057499;28;20047;-59
2023/03/20 10:47:57;;;;;;;7.25;1.98;;;;;;;;;;5057894;28;20043;-59
2023/03/20 10:50:27;;;;;;;6.60;2.33;;;;;;;;;;5075872;28;20048;-59
2023/03/20 10:52:54;;;;;;;6.07;2.40;;;;;;;;;;5076293;28;20051;-59
2023/03/20 10:55:22;;;;;;;10.35;2.42;;;;;;;;;;5059065;28;20124;-59
2023/03/20 10:57:59;;;;;;;6.10;3.35;;;;;;;;;;5075934;28;20037;-59
2023/03/20 11:00:25;;;;;;;4.90;2.42;;;;;;;;;;5074800;28;20040;-59
2023/03/20 11:02:52;;;;;;;11.30;2.67;;;;;;;;;;5076224;28;20044;-59
2023/03/20 11:05:31;;;;;;;10.10;3.38;;;;;;;;;;5074642;28;20051;-59
2023/03/20 11:08:06;;;;;;;21.15;5.57;;;;;;;;;;5074050;28;20068;-59
2023/03/20 11:10:33;;;;;;;14.20;4.82;;;;;;;;;;5075523;28;20044;-59
2023/03/20 11:13:03;;;;;;;7.57;3.00;;;;;;;;;;5075874;28;20129;-59
2023/03/20 11:15:33;;;;;;;7.43;3.30;;;;;;;;;;5075934;28;20523;-59
2023/03/20 11:18:01;;;;;;;12.13;3.40;;;;;;;;;;5075471;28;20629;-59
2023/03/20 11:20:31;;;;;;;13.48;3.20;;;;;;;;;;5075996;28;20163;-59
2023/03/20 11:22:59;;;;;;;10.85;3.85;;;;;;;;;;5076057;28;20102;-59
2023/03/20 11:25:30;;;;;;;24.25;3.58;;;;;;;;;;5075353;28;20625;-59
2023/03/20 11:27:57;;;;;;;11.63;3.43;;;;;;;;;;5074370;28;20067;-59
2023/03/20 11:30:23;;;;;;;7.32;2.60;;;;;;;;;;5070358;28;20102;-59
2023/03/20 11:32:53;;;;;;;6.07;2.75;;;;;;;;;;5073227;28;20048;-59
2023/03/20 11:35:22;;;;;;;6.75;2.53;;;;;;;;;;5075343;28;20045;-59
2023/03/20 11:37:50;;;;;;;8.18;2.63;;;;;;;;;;5075013;28;20040;-59
2023/03/20 11:40:16;;;;;;;8.10;3.10;;;;;;;;;;5075830;28;20629;-59
2023/03/20 11:42:53;;;;;;;6.97;3.17;;;;;;;;;;5075815;28;20049;-59
2023/03/20 11:45:19;;;;;;;9.27;2.72;;;;;;;;;;5075943;28;20041;-59
2023/03/20 11:47:49;;;;;;;9.35;2.60;;;;;;;;;;5056202;28;20083;-59
2023/03/20 11:50:26;;;;;;;11.95;4.10;;;;;;;;;;5074795;28;20099;-59
2023/03/20 11:52:53;;;;;;;11.77;2.83;;;;;;;;;;5075309;28;20645;-59
2023/03/20 11:55:24;;;;;;;7.45;3.60;;;;;;;;;;5075512;28;20044;-59
2023/03/20 11:57:50;;;;;;;13.07;2.67;;;;;;;;;;5074578;28;20037;-59
2023/03/20 12:00:16;;;;;;;7.88;2.50;;;;;;;;;;5075155;28;20094;-59
2023/03/20 12:02:43;;;;;;;5.97;2.20;;;;;;;;;;5074585;28;20028;-59
2023/03/20 12:05:28;;;;;;;8.98;3.00;;;;;;;;;;5074778;28;20047;-59
2023/03/20 12:07:57;;;;;;;11.27;3.28;;;;;;;;;;5075107;28;20045;-59
2023/03/20 12:10:24;;;;;;;9.25;2.22;;;;;;;;;;5076092;28;20493;-59
2023/03/20 12:13:00;;;;;;;9.98;2.33;;;;;;;;;;5074056;28;20063;-59
2023/03/20 12:15:35;;;;;;;6.35;2.88;;;;;;;;;;5075929;28;20123;-59
2023/03/20 12:18:19;;;;;;;10.43;3.15;;;;;;;;;;5074100;28;20060;-59
2023/03/20 12:21:14;;;;;;;20.20;2.75;;;;;;;;;;5075184;28;20546;-60
2023/03/20 12:23:53;;;;;;;7.60;3.08;;;;;;;;;;5039006;28;20052;-59
2023/03/20 12:26:27;;;;;;;8.65;3.03;;;;;;;;;;5074796;28;20089;-59
2023/03/20 12:29:00;;;;;;;7.40;2.90;;;;;;;;;;5074174;28;20055;-59
2023/03/20 12:31:29;;;;;;;7.07;2.58;;;;;;;;;;5073874;28;20033;-58
2023/03/20 12:34:06;;;;;;;8.07;1.80;;;;;;;;;;5069442;28;20534;-58
2023/03/20 12:36:32;;;;;;;5.32;2.05;;;;;;;;;;5056282;28;20695;-58
2023/03/20 12:38:58;;;;;;;8.20;2.72;;;;;;;;;;5074049;28;20064;-58
2023/03/20 12:41:26;;;;;;;8.57;2.58;;;;;;;;;;5074967;28;20048;-58
2023/03/20 12:44:04;;;;;;;10.20;3.67;;;;;;;;;;5073865;28;20519;-58
2023/03/20 12:46:31;;;;;;;6.50;3.13;;;;;;;;;;5073403;28;20101;-58
2023/03/20 12:49:12;;;;;;;7.78;3.38;;;;;;;;;;5073456;28;20910;-58
2023/03/20 12:51:50;;;;;;;11.15;2.92;;;;;;;;;;5073934;28;20516;-58
2023/03/20 12:54:28;;;;;;;6.43;2.50;;;;;;;;;;5075956;28;20049;-58
2023/03/20 12:57:02;;;;;;;6.63;1.88;;;;;;;;;;5074078;28;20147;-58
2023/03/20 12:59:39;;;;;;;8.07;2.55;;;;;;;;;;5075054;28;20040;-58
2023/03/20 13:02:17;;;;;;;7.22;1.63;;;;;;;;;;5049414;28;20863;-58
2023/03/20 13:04:51;;;;;;;11.63;2.97;;;;;;;;;;5073670;28;20101;-58
2023/03/20 13:07:18;;;;;;;7.25;2.63;;;;;;;;;;5074034;28;20106;-58
2023/03/20 13:10:01;;;;;;;10.15;2.63;;;;;;;;;;5073717;28;20059;-58
2023/03/20 13:12:40;;;;;;;7.40;2.95;;;;;;;;;;5073270;28;20135;-58
2023/03/20 13:15:21;;;;;;;6.78;2.42;;;;;;;;;;5073694;28;20153;-58
2023/03/20 13:17:54;;;;;;;8.52;2.95;;;;;;;;;;5072127;28;20127;-58
2023/03/20 13:20:30;;;;;;;6.25;2.63;;;;;;;;;;5073047;28;20252;-58
2023/03/20 13:22:59;;;;;;;8.60;1.75;;;;;;;;;;5072474;28;20114;-60
2023/03/20 13:25:29;;;;;;;4.18;1.80;;;;;;;;;;5073465;28;20048;-57
2023/03/20 13:28:01;;;;;;;6.50;2.35;;;;;;;;;;5073286;28;20060;-58
2023/03/20 13:30:33;;;;;;;8.45;2.00;;;;;;;;;;5072675;28;20737;-58
2023/03/20 13:33:28;;;;;;;8.00;3.88;;;;;;;;;;5071051;28;20585;-58
2023/03/20 13:36:16;;;;;;;8.82;3.17;;;;;;;;;;5051060;28;20489;-58
2023/03/20 13:38:45;;;;;;;4.60;1.77;;;;;;;;;;5072063;28;20044;-58
2023/03/20 13:41:13;;;;;;;6.25;2.10;;;;;;;;;;5046068;28;20040;-58
2023/03/20 13:43:41;;;;;;;7.10;2.28;;;;;;;;;;5073237;28;21034;-58
2023/03/20 13:46:12;;;;;;;7.75;2.75;;;;;;;;;;5072789;28;20045;-58
2023/03/20 13:48:39;;;;;;;12.02;2.35;;;;;;;;;;5071849;28;20610;-58
2023/03/20 13:51:17;;;;;;;9.02;2.60;;;;;;;;;;5073362;28;20053;-58
2023/03/20 13:53:57;;;;;;;6.53;2.15;;;;;;;;;;5072277;28;20043;-58
2023/03/20 13:56:30;;;;;;;5.00;2.58;;;;;;;;;;5071560;28;20044;-58
2023/03/20 13:58:57;;;;;;;6.20;2.20;;;;;;;;;;5070744;28;20036;-58
2023/03/20 14:01:32;;;;;;;8.50;2.33;;;;;;;;;;5071893;28;20124;-58
2023/03/20 14:04:00;;;;;;;6.45;2.15;;;;;;;;;;5072791;28;20535;-58
2023/03/20 14:06:31;;;;;;;8.73;3.00;;;;;;;;;;5072868;28;20041;-58
2023/03/20 14:08:59;;;;;;;8.93;2.70;;;;;;;;;;5073211;28;20041;-58
2023/03/20 14:11:31;;;;;;;6.93;2.65;;;;;;;;;;5071747;28;20061;-58
2023/03/20 14:14:14;;;;;;;8.45;1.70;;;;;;;;;;5073684;28;20043;-58
2023/03/20 14:16:40;;;;;;;8.27;2.85;;;;;;;;;;5071432;28;20051;-58
2023/03/20 14:19:09;;;;;;;9.60;2.30;;;;;;;;;;5072561;28;20040;-58
2023/03/20 14:21:35;;;;;;;10.57;2.83;;;;;;;;;;5073203;28;20036;-58
2023/03/20 14:24:06;;;;;;;4.82;1.90;;;;;;;;;;5071703;28;20036;-58
2023/03/20 14:26:37;;;;;;;6.07;2.85;;;;;;;;;;5072644;28;20119;-58
2023/03/20 14:29:09;;;;;;;8.23;2.00;;;;;;;;;;5073625;28;20033;-58
2023/03/20 14:31:40;;;;;;;9.10;2.60;;;;;;;;;;5071833;28;20040;-58
2023/03/20 14:34:08;;;;;;;5.43;2.53;;;;;;;;;;5071464;28;20043;-58
2023/03/20 14:36:53;;;;;;;6.10;2.42;;;;;;;;;;5071436;28;20539;-58
2023/03/20 14:39:27;;;;;;;9.00;2.70;;;;;;;;;;5073628;28;20047;-58
2023/03/20 14:42:00;;;;;;;12.18;2.45;;;;;;;;;;5074785;28;20036;-58
2023/03/20 14:44:28;;;;;;;15.13;3.38;;;;;;;;;;5076750;28;20093;-58
2023/03/20 14:47:19;;;;;;;10.30;2.88;;;;;;;;;;5074617;28;20052;-58
2023/03/20 14:50:05;;;;;;;6.30;2.22;;;;;;;;;;5075065;28;20032;-58
2023/03/20 14:52:32;;;;;;;12.85;3.55;;;;;;;;;;5075566;28;20119;-58